createdAt,value
2022-09-09T00:01:07.848Z,1.00
2022-09-09T00:03:18.037Z,1.00
2022-09-09T00:05:56.727Z,1.00
2022-09-09T00:08:04.843Z,1.00
2022-09-09T00:10:33.450Z,1.00
2022-09-09T00:12:44.608Z,1.00
2022-09-09T00:15:06.948Z,1.00
2022-09-09T00:17:27.085Z,1.00
2022-09-09T00:19:51.405Z,1.00
2022-09-09T00:22:24.361Z,1.00
2022-09-09T00:24:33.106Z,1.00
2022-09-09T00:26:49.621Z,1.00
2022-09-09T00:29:08.435Z,1.00
2022-09-09T00:31:17.299Z,1.00
2022-09-09T00:33:23.367Z,1.00
2022-09-09T00:35:35.641Z,1.00
2022-09-09T00:37:41.134Z,1.00
2022-09-09T00:39:48.820Z,1.00
2022-09-09T00:42:15.094Z,1.00
2022-09-09T00:44:36.193Z,1.00
2022-09-09T00:47:10.948Z,1.00
2022-09-09T00:49:31.666Z,1.00
2022-09-09T00:51:59.546Z,1.00
2022-09-09T00:54:04.206Z,1.00
2022-09-09T00:56:24.471Z,1.00
2022-09-09T00:58:26.193Z,1.00
2022-09-09T01:00:34.367Z,1.00
2022-09-09T01:03:00.130Z,1.00
2022-09-09T01:05:21.470Z,1.00
2022-09-09T01:07:23.623Z,1.00
2022-09-09T01:09:52.338Z,1.00
2022-09-09T01:12:11.132Z,1.00
2022-09-09T01:14:21.338Z,1.00
2022-09-09T01:16:23.369Z,1.00
2022-09-09T01:18:29.359Z,1.00
2022-09-09T01:20:56.452Z,1.00
2022-09-09T01:23:20.467Z,1.00
2022-09-09T01:25:59.394Z,1.00
2022-09-09T01:28:09.177Z,1.00
2022-09-09T01:30:17.027Z,1.00
2022-09-09T01:32:45.622Z,1.00
2022-09-09T01:34:47.358Z,1.00
2022-09-09T01:37:02.985Z,1.00
2022-09-09T01:39:04.927Z,1.00
2022-09-09T01:41:06.687Z,1.00
2022-09-09T01:43:08.474Z,1.00
2022-09-09T01:45:10.669Z,1.00
2022-09-09T01:47:12.389Z,1.00
2022-09-09T01:49:14.174Z,1.00
2022-09-09T01:51:15.870Z,1.00
2022-09-09T01:53:19.767Z,1.00
2022-09-09T01:55:30.873Z,1.00
2022-09-09T01:57:40.466Z,1.00
2022-09-09T02:00:09.023Z,1.00
2022-09-09T02:02:35.507Z,1.00
2022-09-09T02:04:42.913Z,1.00
2022-09-09T02:06:46.799Z,1.00
2022-09-09T02:08:50.993Z,1.00
2022-09-09T02:10:59.885Z,1.00
2022-09-09T02:13:17.063Z,1.00
2022-09-09T02:15:33.520Z,1.00
2022-09-09T02:17:39.586Z,1.00
2022-09-09T02:19:49.875Z,1.00
2022-09-09T02:21:53.060Z,1.00
2022-09-09T02:23:57.027Z,1.00
2022-09-09T02:26:00.023Z,1.00
2022-09-09T02:28:04.510Z,1.00
2022-09-09T02:30:06.825Z,1.00
2022-09-09T02:32:23.259Z,5.50
2022-09-09T02:34:25.951Z,3.00
2022-09-09T02:36:32.028Z,10.70
2022-09-09T02:38:38.539Z,16.70
2022-09-09T02:40:40.522Z,25.50
2022-09-09T02:42:44.456Z,36.40
2022-09-09T02:44:46.395Z,44.20
2022-09-09T02:46:59.923Z,49.00
2022-09-09T02:49:19.443Z,52.50
2022-09-09T02:51:40.003Z,55.00
2022-09-09T02:54:05.783Z,66.50
2022-09-09T02:56:16.156Z,63.60
2022-09-09T02:58:19.898Z,54.70
2022-09-09T03:00:27.127Z,55.00
2022-09-09T03:02:30.029Z,54.80
2022-09-09T03:04:32.111Z,57.90
2022-09-09T03:06:33.749Z,66.10
2022-09-09T03:08:35.478Z,76.70
2022-09-09T03:10:38.015Z,87.00
2022-09-09T03:12:39.953Z,92.40
2022-09-09T03:14:41.705Z,96.20
2022-09-09T03:16:44.233Z,99.60
2022-09-09T03:18:46.873Z,99.90
2022-09-09T03:20:52.130Z,99.90
2022-09-09T03:22:54.460Z,99.90
2022-09-09T03:24:56.154Z,99.90
2022-09-09T03:26:58.397Z,99.90
2022-09-09T03:29:01.523Z,99.90
2022-09-09T03:31:05.886Z,99.90
2022-09-09T03:33:07.647Z,99.90
2022-09-09T03:35:09.785Z,99.90
2022-09-09T03:37:11.637Z,99.90
2022-09-09T03:39:13.462Z,99.90
2022-09-09T03:41:15.341Z,99.90
2022-09-09T03:43:17.597Z,99.60
2022-09-09T03:45:19.213Z,99.90
2022-09-09T03:47:22.666Z,95.40
2022-09-09T03:49:25.264Z,90.90
2022-09-09T03:51:26.886Z,90.70
2022-09-09T03:53:29.249Z,82.50
2022-09-09T03:55:30.892Z,84.10
2022-09-09T03:57:35.914Z,74.50
2022-09-09T03:59:37.910Z,70.30
2022-09-09T04:01:40.999Z,72.10
2022-09-09T04:03:43.274Z,70.30
2022-09-09T04:05:44.926Z,74.70
2022-09-09T04:07:46.614Z,71.80
2022-09-09T04:09:48.433Z,67.30
2022-09-09T04:11:50.464Z,67.60
2022-09-09T04:13:52.102Z,73.90
2022-09-09T04:15:59.496Z,68.00
2022-09-09T04:18:02.654Z,66.80
2022-09-09T04:20:04.576Z,61.50
2022-09-09T04:22:06.353Z,74.80
2022-09-09T04:24:10.787Z,74.40
2022-09-09T04:26:12.436Z,71.50
2022-09-09T04:28:15.398Z,73.30
2022-09-09T04:30:17.476Z,66.80
2022-09-09T04:32:19.096Z,79.30
2022-09-09T04:34:20.968Z,82.20
2022-09-09T04:36:23.246Z,86.80
2022-09-09T04:38:25.000Z,87.70
2022-09-09T04:40:26.587Z,90.60
2022-09-09T04:42:28.739Z,94.60
2022-09-09T04:44:31.268Z,99.90
2022-09-09T04:46:34.189Z,99.90
2022-09-09T04:48:36.195Z,99.90
2022-09-09T04:50:37.915Z,99.90
2022-09-09T04:52:39.514Z,99.90
2022-09-09T04:54:41.465Z,99.90
2022-09-09T04:56:44.243Z,99.90
2022-09-09T04:58:46.546Z,99.90
2022-09-09T05:00:48.390Z,99.90
2022-09-09T05:02:50.118Z,99.90
2022-09-09T05:04:51.827Z,99.90
2022-09-09T05:06:53.580Z,99.90
2022-09-09T05:08:55.250Z,99.90
2022-09-09T05:10:57.058Z,99.90
2022-09-09T05:12:58.712Z,99.90
2022-09-09T05:15:00.367Z,99.90
2022-09-09T05:17:02.002Z,99.90
2022-09-09T05:19:04.267Z,99.90
2022-09-09T05:21:07.117Z,99.90
2022-09-09T05:23:10.718Z,99.90
2022-09-09T05:25:12.344Z,99.90
2022-09-09T05:27:14.061Z,99.90
2022-09-09T05:29:15.873Z,99.90
2022-09-09T05:31:19.403Z,99.90
2022-09-09T05:33:22.025Z,99.90
2022-09-09T05:35:24.090Z,99.90
2022-09-09T05:37:26.342Z,99.90
2022-09-09T05:39:28.010Z,99.90
2022-09-09T05:41:30.400Z,99.90
2022-09-09T05:43:33.325Z,99.90
2022-09-09T05:45:34.940Z,99.90
2022-09-09T05:47:38.392Z,99.90
2022-09-09T05:49:40.240Z,99.90
2022-09-09T05:51:43.714Z,99.90
2022-09-09T05:53:46.637Z,99.90
2022-09-09T05:55:49.121Z,99.60
2022-09-09T05:57:53.043Z,98.10
2022-09-09T05:59:54.891Z,96.40
2022-09-09T06:01:57.209Z,99.90
2022-09-09T06:03:59.130Z,99.90
2022-09-09T06:06:15.166Z,99.40
2022-09-09T06:08:17.571Z,99.90
2022-09-09T06:10:19.917Z,99.90
2022-09-09T06:12:21.959Z,99.90
2022-09-09T06:14:23.722Z,99.90
2022-09-09T06:16:28.542Z,99.90
2022-09-09T06:18:30.594Z,99.90
2022-09-09T06:20:32.984Z,99.90
2022-09-09T06:22:34.573Z,99.90
2022-09-09T06:24:36.260Z,99.90
2022-09-09T06:26:42.871Z,99.90
2022-09-09T06:28:46.517Z,99.90
2022-09-09T06:30:48.194Z,99.90
2022-09-09T06:32:50.953Z,99.90
2022-09-09T06:34:52.699Z,99.90
2022-09-09T06:36:54.333Z,99.90
2022-09-09T06:38:56.328Z,98.90
2022-09-09T06:41:00.101Z,99.90
2022-09-09T06:43:02.124Z,99.90
2022-09-09T06:45:04.047Z,99.90
2022-09-09T06:47:06.456Z,99.90
2022-09-09T06:49:09.924Z,91.60
2022-09-09T06:51:17.513Z,97.40
2022-09-09T06:53:20.069Z,57.70
2022-09-09T06:55:21.754Z,42.00
2022-09-09T06:57:38.795Z,13.30
2022-09-09T06:59:40.465Z,1.00
2022-09-09T07:01:50.266Z,1.00
2022-09-09T07:03:56.317Z,1.00
2022-09-09T07:05:58.511Z,1.00
2022-09-09T07:08:00.485Z,1.00
2022-09-09T07:10:02.194Z,1.00
2022-09-09T07:12:05.242Z,1.00
2022-09-09T07:14:06.870Z,1.00
2022-09-09T07:16:13.910Z,1.00
2022-09-09T07:18:15.651Z,1.00
2022-09-09T07:20:17.389Z,1.00
2022-09-09T07:22:21.083Z,1.00
2022-09-09T07:24:22.770Z,1.00
2022-09-09T07:26:26.933Z,1.00
2022-09-09T07:28:29.915Z,1.00
2022-09-09T07:30:31.937Z,1.00
2022-09-09T07:32:33.684Z,1.00
2022-09-09T07:34:35.380Z,1.00
2022-09-09T07:36:40.065Z,1.00
2022-09-09T07:38:46.957Z,1.00
2022-09-09T07:40:48.622Z,1.00
2022-09-09T07:42:50.430Z,1.00
2022-09-09T07:44:55.756Z,1.00
2022-09-09T07:46:57.513Z,1.00
2022-09-09T07:48:59.598Z,1.00
2022-09-09T07:51:07.282Z,1.00
2022-09-09T07:53:09.046Z,1.00
2022-09-09T07:55:11.199Z,1.00
2022-09-09T07:57:13.618Z,1.00
2022-09-09T07:59:15.346Z,1.00
2022-09-09T08:01:20.211Z,99.90
2022-09-09T08:03:23.072Z,99.90
2022-09-09T08:05:24.772Z,1.00
2022-09-09T08:07:27.098Z,99.90
2022-09-09T08:09:33.469Z,1.00
2022-09-09T08:11:39.233Z,99.90
2022-09-09T08:13:43.362Z,99.90
2022-09-09T08:15:45.522Z,1.00
2022-09-09T08:17:47.297Z,1.00
2022-09-09T08:19:49.010Z,99.90
2022-09-09T08:21:50.676Z,1.00
2022-09-09T08:23:57.833Z,99.90
2022-09-09T08:26:22.419Z,10.30
2022-09-09T08:28:24.045Z,1.00
2022-09-09T08:30:25.717Z,1.00
2022-09-09T08:32:27.475Z,99.90
2022-09-09T08:34:29.938Z,99.90
2022-09-09T08:36:34.653Z,99.90
2022-09-09T08:38:36.725Z,99.90
2022-09-09T08:40:45.150Z,99.90
2022-09-09T08:42:50.500Z,99.90
2022-09-09T08:45:29.223Z,1.00
2022-09-09T08:47:50.409Z,1.00
2022-09-09T08:49:55.171Z,1.00
2022-09-09T08:51:58.366Z,99.90
2022-09-09T08:54:03.020Z,99.90
2022-09-09T08:56:12.550Z,99.90
2022-09-09T08:58:20.190Z,99.90
2022-09-09T09:00:22.209Z,99.90
2022-09-09T09:02:54.640Z,1.00
2022-09-09T09:05:22.864Z,1.00
2022-09-09T09:07:24.450Z,1.00
2022-09-09T09:09:42.144Z,1.00
2022-09-09T09:12:01.784Z,99.90
2022-09-09T09:14:24.870Z,1.00
2022-09-09T09:16:51.051Z,1.00
2022-09-09T09:18:53.665Z,99.90
2022-09-09T09:21:04.961Z,99.90
2022-09-09T09:23:07.509Z,1.00
2022-09-09T09:25:09.348Z,1.00
2022-09-09T09:27:16.974Z,1.00
2022-09-09T09:29:20.927Z,1.00
2022-09-09T09:31:24.354Z,1.00
2022-09-09T09:33:33.907Z,99.90
2022-09-09T09:35:40.517Z,99.90
2022-09-09T09:40:18.301Z,99.90
2022-09-09T09:42:23.843Z,99.90
2022-09-09T09:44:33.417Z,99.90
2022-09-09T09:46:35.205Z,1.00
2022-09-09T09:48:37.031Z,99.90
2022-09-09T09:51:01.511Z,1.00
2022-09-09T09:53:20.355Z,1.00
2022-09-09T09:55:23.665Z,1.00
2022-09-09T09:57:31.654Z,1.00
2022-09-09T09:59:41.017Z,1.00
2022-09-09T10:01:43.594Z,1.00
2022-09-09T10:03:53.362Z,1.00
2022-09-09T10:05:57.177Z,1.00
2022-09-09T10:08:25.786Z,1.00
2022-09-09T10:10:56.158Z,1.00
2022-09-09T10:13:16.462Z,1.00
2022-09-09T10:15:40.052Z,99.90
2022-09-09T10:18:19.131Z,99.90
2022-09-09T10:20:23.819Z,1.00
2022-09-09T10:22:32.446Z,1.00
2022-09-09T10:24:42.586Z,99.90
2022-09-09T10:27:01.111Z,99.90
2022-09-09T10:29:32.053Z,1.00
2022-09-09T10:31:41.793Z,56.90
2022-09-09T10:34:29.779Z,63.70
2022-09-09T10:36:33.302Z,70.80
2022-09-09T10:39:00.707Z,75.10
2022-09-09T10:41:18.510Z,71.30
2022-09-09T10:43:44.391Z,72.00
2022-09-09T10:46:09.942Z,73.60
2022-09-09T10:48:49.212Z,70.90
2022-09-09T10:51:03.917Z,69.90
2022-09-09T10:53:26.932Z,69.80
2022-09-09T10:55:44.754Z,75.50
2022-09-09T10:57:49.837Z,72.30
2022-09-09T10:59:55.926Z,71.30
2022-09-09T11:02:28.859Z,68.70
2022-09-09T11:04:36.304Z,68.00
2022-09-09T11:06:45.323Z,68.90
2022-09-09T11:08:50.778Z,67.60
2022-09-09T11:11:04.756Z,66.00
2022-09-09T11:13:23.065Z,67.10
2022-09-09T11:15:35.198Z,71.00
2022-09-09T11:17:50.378Z,68.30
2022-09-09T11:19:52.750Z,73.10
2022-09-09T11:21:56.377Z,73.10
2022-09-09T11:24:02.631Z,75.80
2022-09-09T11:26:05.986Z,1.00
2022-09-09T11:28:25.120Z,99.90
2022-09-09T11:30:55.614Z,99.90
2022-09-09T11:33:20.622Z,1.00
2022-09-09T11:35:41.289Z,1.00
2022-09-09T11:38:07.687Z,99.90
2022-09-09T11:40:29.043Z,99.90
2022-09-09T11:42:30.993Z,1.00
2022-09-09T11:44:32.903Z,1.00
2022-09-09T11:46:39.197Z,1.00
2022-09-09T11:48:49.366Z,78.60
2022-09-09T11:51:03.904Z,99.90
2022-09-09T11:53:21.874Z,99.90
2022-09-09T11:55:32.067Z,1.00
2022-09-09T11:57:37.034Z,99.90
2022-09-09T11:59:38.711Z,1.00
2022-09-09T12:01:43.941Z,1.00
2022-09-09T12:03:49.879Z,99.90
2022-09-09T12:05:52.386Z,99.90
2022-09-09T12:07:59.240Z,99.90
2022-09-09T12:10:21.612Z,99.90
2022-09-09T12:12:30.866Z,99.90
2022-09-09T12:14:42.879Z,99.90
2022-09-09T12:16:44.564Z,99.90
2022-09-09T12:18:46.806Z,99.90
2022-09-09T12:21:27.226Z,99.90
2022-09-09T12:23:37.065Z,99.90
2022-09-09T12:25:53.167Z,99.90
2022-09-09T12:28:18.738Z,80.60
2022-09-09T12:30:22.565Z,84.60
2022-09-09T12:32:29.920Z,14.00
2022-09-09T12:35:13.235Z,14.40
2022-09-09T12:37:22.710Z,1.00
2022-09-09T12:39:33.251Z,1.00
2022-09-09T12:41:34.943Z,1.00
2022-09-09T12:43:37.493Z,1.00
2022-09-09T12:45:42.300Z,1.00
2022-09-09T12:48:01.518Z,1.00
2022-09-09T12:50:03.749Z,99.90
2022-09-09T12:52:10.837Z,1.00
2022-09-09T12:54:16.347Z,1.00
2022-09-09T12:56:24.408Z,1.00
2022-09-09T12:58:29.200Z,1.00
2022-09-09T13:00:32.185Z,1.00
2022-09-09T13:02:34.094Z,99.90
2022-09-09T13:04:35.837Z,1.00
2022-09-09T13:06:37.486Z,99.90
2022-09-09T13:08:39.885Z,99.90
2022-09-09T13:10:55.462Z,99.90
2022-09-09T13:12:59.370Z,99.90
2022-09-09T13:15:01.225Z,1.00
2022-09-09T13:17:05.524Z,1.00
2022-09-09T13:19:17.423Z,99.90
2022-09-09T13:21:19.838Z,1.00
2022-09-09T13:23:23.015Z,99.90
2022-09-09T13:25:29.805Z,1.00
2022-09-09T13:27:35.223Z,1.00
2022-09-09T13:29:38.234Z,99.90
2022-09-09T13:31:40.060Z,99.90
2022-09-09T13:33:41.722Z,1.00
2022-09-09T13:36:01.800Z,99.90
2022-09-09T13:38:10.559Z,1.00
2022-09-09T13:40:20.881Z,1.00
2022-09-09T13:42:31.257Z,1.00
2022-09-09T13:44:42.569Z,99.90
2022-09-09T13:46:45.665Z,99.90
2022-09-09T13:48:59.170Z,99.90
2022-09-09T13:51:08.498Z,99.90
2022-09-09T13:53:10.157Z,1.00
2022-09-09T13:55:11.796Z,99.90
2022-09-09T13:57:19.101Z,99.90
2022-09-09T13:59:21.119Z,1.00
2022-09-09T14:01:25.275Z,24.40
2022-09-09T14:03:31.126Z,1.00
2022-09-09T14:05:34.650Z,99.90
2022-09-09T14:07:36.346Z,1.00
2022-09-09T14:09:37.982Z,1.00
2022-09-09T14:11:39.749Z,1.00
2022-09-09T14:13:41.618Z,99.90
2022-09-09T14:15:43.329Z,99.90
2022-09-09T14:17:44.986Z,99.90
2022-09-09T14:19:46.945Z,99.90
2022-09-09T14:21:48.737Z,99.90
2022-09-09T14:23:50.441Z,1.00
2022-09-09T14:25:52.530Z,99.90
2022-09-09T14:27:54.155Z,99.90
2022-09-09T14:29:56.240Z,15.00
2022-09-09T14:31:57.915Z,1.00
2022-09-09T14:33:59.951Z,99.90
2022-09-09T14:36:03.702Z,23.80
2022-09-09T14:38:06.225Z,99.90
2022-09-09T14:40:08.487Z,99.90
2022-09-09T14:42:12.008Z,1.00
2022-09-09T14:44:13.798Z,29.40
2022-09-09T14:46:17.665Z,99.90
2022-09-09T14:48:20.284Z,99.90
2022-09-09T14:50:22.953Z,99.90
2022-09-09T14:52:24.650Z,1.00
2022-09-09T14:54:26.328Z,1.00
2022-09-09T14:56:30.608Z,99.90
2022-09-09T14:58:32.561Z,1.00
2022-09-09T15:00:34.291Z,21.90
2022-09-09T15:02:36.117Z,68.60
2022-09-09T15:04:37.977Z,1.00
2022-09-09T15:06:40.303Z,82.70
2022-09-09T15:08:44.200Z,80.60
2022-09-09T15:10:46.170Z,84.30
2022-09-09T15:12:47.885Z,85.80
2022-09-09T15:14:49.504Z,82.80
2022-09-09T15:16:51.127Z,77.40
2022-09-09T15:18:55.180Z,78.00
2022-09-09T15:20:57.301Z,82.80
2022-09-09T15:22:59.260Z,78.80
2022-09-09T15:25:00.872Z,81.60
2022-09-09T15:27:03.590Z,81.30
2022-09-09T15:29:05.363Z,84.80
2022-09-09T15:31:12.093Z,82.50
2022-09-09T15:33:13.760Z,82.00
2022-09-09T15:35:16.252Z,80.90
2022-09-09T15:37:18.045Z,79.90
2022-09-09T15:39:19.862Z,79.50
2022-09-09T15:41:23.585Z,81.20
2022-09-09T15:43:25.316Z,81.90
2022-09-09T15:45:27.850Z,84.40
2022-09-09T15:47:29.630Z,85.10
2022-09-09T15:49:31.442Z,86.20
2022-09-09T15:51:48.997Z,85.60
2022-09-09T15:53:56.397Z,99.90
2022-09-09T15:55:58.070Z,99.90
2022-09-09T15:57:59.690Z,1.00
2022-09-09T16:00:02.460Z,1.00
2022-09-09T16:02:06.200Z,1.00
2022-09-09T16:04:07.987Z,51.30
2022-09-09T16:06:10.477Z,99.90
2022-09-09T16:08:12.400Z,83.70
2022-09-09T16:10:14.621Z,99.90
2022-09-09T16:12:17.214Z,1.00
2022-09-09T16:14:18.901Z,99.90
2022-09-09T16:16:23.609Z,1.00
2022-09-09T16:18:25.281Z,88.80
2022-09-09T16:20:26.996Z,1.00
2022-09-09T16:22:28.750Z,99.90
2022-09-09T16:24:30.528Z,99.90
2022-09-09T16:26:34.725Z,99.90
2022-09-09T16:28:36.341Z,1.00
2022-09-09T16:30:38.209Z,99.90
2022-09-09T16:32:39.845Z,99.90
2022-09-09T16:34:41.531Z,1.00
2022-09-09T16:36:44.748Z,99.90
2022-09-09T16:38:46.653Z,99.90
2022-09-09T16:40:50.999Z,99.90
2022-09-09T16:42:52.905Z,99.90
2022-09-09T16:44:54.538Z,1.00
2022-09-09T16:47:00.415Z,99.90
2022-09-09T16:49:04.621Z,85.00
2022-09-09T16:51:15.193Z,59.00
2022-09-09T16:53:16.829Z,1.00
2022-09-09T16:55:20.023Z,1.00
2022-09-09T16:57:21.670Z,99.90
2022-09-09T16:59:24.534Z,99.90
2022-09-09T17:01:38.013Z,58.60
2022-09-09T17:03:39.698Z,99.90
2022-09-09T17:05:42.572Z,99.90
2022-09-09T17:07:44.966Z,1.00
2022-09-09T17:09:46.632Z,1.00
2022-09-09T17:11:51.392Z,1.00
2022-09-09T17:13:54.261Z,1.00
2022-09-09T17:15:58.659Z,1.00
2022-09-09T17:18:04.231Z,1.00
2022-09-09T17:20:08.005Z,1.00
2022-09-09T17:22:17.902Z,1.00
2022-09-09T17:24:19.751Z,1.00
2022-09-09T17:26:23.617Z,1.00
2022-09-09T17:28:28.338Z,1.00
2022-09-09T17:30:30.274Z,1.00
2022-09-09T17:32:31.873Z,1.00
2022-09-09T17:34:34.135Z,1.00
2022-09-09T17:36:37.661Z,1.00
2022-09-09T17:38:39.879Z,1.00
2022-09-09T17:40:41.746Z,1.00
2022-09-09T17:42:43.618Z,1.00
2022-09-09T17:44:45.243Z,1.00
2022-09-09T17:46:47.796Z,1.00
2022-09-09T17:48:53.726Z,1.00
2022-09-09T17:51:00.147Z,1.00
2022-09-09T17:53:03.334Z,1.00
2022-09-09T17:55:05.957Z,1.00
2022-09-09T17:57:07.675Z,1.00
2022-09-09T17:59:12.225Z,1.00
2022-09-09T18:01:22.252Z,1.00
2022-09-09T18:03:23.910Z,1.00
2022-09-09T18:05:25.671Z,1.00
2022-09-09T18:07:27.689Z,1.00
2022-09-09T18:09:29.436Z,1.00
2022-09-09T18:11:34.432Z,1.00
2022-09-09T18:13:36.420Z,1.00
2022-09-09T18:15:49.225Z,1.00
2022-09-09T18:17:51.609Z,1.00
2022-09-09T18:19:53.265Z,1.00
2022-09-09T18:21:57.509Z,1.00
2022-09-09T18:24:04.233Z,1.00
2022-09-09T18:26:15.539Z,1.00
2022-09-09T18:28:19.426Z,1.00
2022-09-09T18:30:22.956Z,1.00
2022-09-09T18:32:24.657Z,1.00
2022-09-09T18:34:28.914Z,1.00
2022-09-09T18:36:34.352Z,1.00
2022-09-09T18:38:37.227Z,1.00
2022-09-09T18:40:38.948Z,1.00
2022-09-09T18:42:40.876Z,1.00
2022-09-09T18:44:43.208Z,1.00
2022-09-09T18:46:45.273Z,1.00
2022-09-09T18:48:48.192Z,1.00
2022-09-09T18:50:49.944Z,1.00
2022-09-09T18:52:52.732Z,1.00
2022-09-09T18:54:54.416Z,1.00
2022-09-09T18:56:56.214Z,1.00
2022-09-09T18:59:02.762Z,1.00
2022-09-09T19:01:08.441Z,1.00
2022-09-09T19:03:10.150Z,1.00
2022-09-09T19:05:11.909Z,1.00
2022-09-09T19:07:13.686Z,1.00
2022-09-09T19:09:18.545Z,1.00
2022-09-09T19:11:25.405Z,1.00
2022-09-09T19:13:27.177Z,1.00
2022-09-09T19:15:29.695Z,1.00
2022-09-09T19:17:32.360Z,1.00
2022-09-09T19:19:35.149Z,1.00
2022-09-09T19:21:38.776Z,1.00
2022-09-09T19:23:44.167Z,1.00
2022-09-09T19:25:45.881Z,1.00
2022-09-09T19:27:47.551Z,1.00
2022-09-09T19:29:49.298Z,1.00
2022-09-09T19:32:29.707Z,1.00
2022-09-09T19:34:15.561Z,1.00
2022-09-09T19:36:19.009Z,1.00
2022-09-09T19:38:20.678Z,1.00
2022-09-09T19:40:22.969Z,1.00
2022-09-09T19:42:25.422Z,1.00
2022-09-09T19:44:27.169Z,1.00
2022-09-09T19:46:35.376Z,1.00
2022-09-09T19:48:39.217Z,1.00
2022-09-09T19:50:41.342Z,1.00
2022-09-09T19:52:43.061Z,1.00
2022-09-09T19:54:46.615Z,1.00
2022-09-09T19:56:48.364Z,1.00
2022-09-09T19:58:50.701Z,1.00
2022-09-09T20:00:53.914Z,1.00
2022-09-09T20:03:17.611Z,1.00
2022-09-09T20:05:17.273Z,1.00
2022-09-09T20:07:19.181Z,1.00
2022-09-09T20:09:22.055Z,1.00
2022-09-09T20:11:25.005Z,5.10
2022-09-09T20:13:28.337Z,18.70
2022-09-09T20:15:30.191Z,34.40
2022-09-09T20:17:32.041Z,39.70
2022-09-09T20:19:34.218Z,42.70
2022-09-09T20:21:46.555Z,45.20
2022-09-09T20:23:50.718Z,50.20
2022-09-09T20:25:52.407Z,57.60
2022-09-09T20:27:54.017Z,59.90
2022-09-09T20:29:55.751Z,61.10
2022-09-09T20:31:58.428Z,71.50
2022-09-09T20:34:00.084Z,42.60
2022-09-09T20:36:30.298Z,39.70
2022-09-09T20:38:35.298Z,36.70
2022-09-09T20:40:38.148Z,36.10
2022-09-09T20:42:40.037Z,27.60
2022-09-09T20:44:41.657Z,29.90
2022-09-09T20:46:48.271Z,32.10
2022-09-09T20:48:51.387Z,31.50
2022-09-09T20:50:53.999Z,35.40
2022-09-09T20:52:55.848Z,43.90
2022-09-09T20:54:57.674Z,32.40
2022-09-09T20:57:02.896Z,33.60
2022-09-09T20:59:06.044Z,37.50
2022-09-09T21:01:07.747Z,42.20
2022-09-09T21:03:09.658Z,39.30
2022-09-09T21:05:11.577Z,40.00
2022-09-09T21:07:13.562Z,34.10
2022-09-09T21:09:15.298Z,31.40
2022-09-09T21:11:17.562Z,32.20
2022-09-09T21:13:21.093Z,41.00
2022-09-09T21:15:24.377Z,42.00
2022-09-09T21:17:26.238Z,47.40
2022-09-09T21:19:29.089Z,56.90
2022-09-09T21:21:30.814Z,56.20
2022-09-09T21:23:32.712Z,60.10
2022-09-09T21:25:34.396Z,62.40
2022-09-09T21:27:36.214Z,55.50
2022-09-09T21:29:38.133Z,59.40
2022-09-09T21:31:39.905Z,42.10
2022-09-09T21:33:41.986Z,37.10
2022-09-09T21:35:44.171Z,37.90
2022-09-09T21:37:46.014Z,44.00
2022-09-09T21:39:48.008Z,36.60
2022-09-09T21:41:49.789Z,47.60
2022-09-09T21:43:54.889Z,56.30
2022-09-09T21:45:56.803Z,55.70
2022-09-09T21:47:58.652Z,64.20
2022-09-09T21:50:01.180Z,65.60
2022-09-09T21:52:03.546Z,71.10
2022-09-09T21:54:06.836Z,77.00
2022-09-09T21:56:12.244Z,90.70
2022-09-09T21:58:15.606Z,91.00
2022-09-09T22:00:18.061Z,99.90
2022-09-09T22:02:21.861Z,99.90
2022-09-09T22:04:24.001Z,99.90
2022-09-09T22:06:26.185Z,99.90
2022-09-09T22:08:29.646Z,99.90
2022-09-09T22:10:31.420Z,99.90
2022-09-09T22:12:34.313Z,99.90
2022-09-09T22:14:37.149Z,99.90
2022-09-09T22:16:39.892Z,99.90
2022-09-09T22:18:42.290Z,99.90
2022-09-09T22:20:45.221Z,99.90
2022-09-09T22:22:46.853Z,99.90
2022-09-09T22:24:48.755Z,99.90
2022-09-09T22:26:55.521Z,99.90
2022-09-09T22:28:58.050Z,99.90
2022-09-09T22:31:00.443Z,99.90
2022-09-09T22:33:02.782Z,99.90
2022-09-09T22:35:04.826Z,99.90
2022-09-09T22:37:07.342Z,99.90
2022-09-09T22:39:09.078Z,99.90
2022-09-09T22:41:10.792Z,99.90
2022-09-09T22:43:19.222Z,99.90
2022-09-09T22:45:21.692Z,99.90
2022-09-09T22:47:23.417Z,99.90
2022-09-09T22:49:25.404Z,99.90
2022-09-09T22:51:27.061Z,99.90
2022-09-09T22:53:28.725Z,99.90
2022-09-09T22:55:31.271Z,99.90
2022-09-09T22:57:32.890Z,99.90
2022-09-09T22:59:35.227Z,99.90
2022-09-09T23:01:37.047Z,99.90
2022-09-09T23:03:40.609Z,99.90
2022-09-09T23:05:42.758Z,99.90
2022-09-09T23:07:44.896Z,99.90
2022-09-09T23:09:47.848Z,99.90
2022-09-09T23:11:49.493Z,99.90
2022-09-09T23:13:53.240Z,99.90
2022-09-09T23:15:55.300Z,99.90
2022-09-09T23:17:56.986Z,99.90
2022-09-09T23:19:58.687Z,99.90
2022-09-09T23:22:00.561Z,99.90
2022-09-09T23:24:02.410Z,99.90
2022-09-09T23:26:09.432Z,99.90
2022-09-09T23:28:11.502Z,99.90
2022-09-09T23:30:13.625Z,99.90
2022-09-09T23:32:15.816Z,99.90
2022-09-09T23:34:18.058Z,99.90
2022-09-09T23:36:21.251Z,99.90
2022-09-09T23:38:22.926Z,99.90
2022-09-09T23:40:25.318Z,99.90
2022-09-09T23:42:27.175Z,99.90
2022-09-09T23:44:29.272Z,99.90
2022-09-09T23:46:32.912Z,99.90
2022-09-09T23:48:39.065Z,99.90
2022-09-09T23:50:42.098Z,99.90
2022-09-09T23:52:44.517Z,99.90
2022-09-09T23:54:46.805Z,99.90
2022-09-09T23:56:48.400Z,99.90
2022-09-09T23:58:51.474Z,99.90
